sensor_id;sensor_type;location;lat;lon;timestamp;pressure;altitude;pressure_sealevel;temperature;humidity
54172;BME280;40076;52.354;4.970;2023-07-13T00:00:07;101319.38;;;19.37;100.00
54172;BME280;40076;52.354;4.970;2023-07-13T00:02:36;101323.69;;;19.38;100.00
54172;BME280;40076;52.354;4.970;2023-07-13T00:05:02;101320.94;;;19.38;100.00
54172;BME280;40076;52.354;4.970;2023-07-13T00:10:51;101316.22;;;19.35;100.00
54172;BME280;40076;52.354;4.970;2023-07-13T00:13:20;101314.19;;;19.32;100.00
54172;BME280;40076;52.354;4.970;2023-07-13T00:15:45;101308.31;;;19.30;100.00
54172;BME280;40076;52.354;4.970;2023-07-13T00:18:11;101318.84;;;19.27;100.00
54172;BME280;40076;52.354;4.970;2023-07-13T00:20:37;101318.84;;;19.27;100.00
54172;BME280;40076;52.354;4.970;2023-07-13T00:23:03;101329.78;;;19.27;100.00
54172;BME280;40076;52.354;4.970;2023-07-13T00:25:28;101324.31;;;19.27;100.00
54172;BME280;40076;52.354;4.970;2023-07-13T00:27:54;101316.81;;;19.24;100.00
54172;BME280;40076;52.354;4.970;2023-07-13T00:30:20;101318.75;;;19.24;100.00
54172;BME280;40076;52.354;4.970;2023-07-13T00:32:46;101320.69;;;19.23;100.00
54172;BME280;40076;52.354;4.970;2023-07-13T00:35:13;101324.59;;;19.22;100.00
54172;BME280;40076;52.354;4.970;2023-07-13T00:37:39;101321.84;;;19.22;100.00
54172;BME280;40076;52.354;4.970;2023-07-13T00:40:05;101320.28;;;19.21;100.00
54172;BME280;40076;52.354;4.970;2023-07-13T00:42:31;101323.41;;;19.20;100.00
54172;BME280;40076;52.354;4.970;2023-07-13T00:47:38;101328.81;;;19.16;100.00
54172;BME280;40076;52.354;4.970;2023-07-13T00:50:10;101328.00;;;19.16;100.00
54172;BME280;40076;52.354;4.970;2023-07-13T00:52:39;101324.88;;;19.14;100.00
54172;BME280;40076;52.354;4.970;2023-07-13T00:55:06;101328.75;;;19.13;100.00
54172;BME280;40076;52.354;4.970;2023-07-13T00:57:32;101321.69;;;19.12;100.00
54172;BME280;40076;52.354;4.970;2023-07-13T01:00:02;101318.16;;;19.11;100.00
54172;BME280;40076;52.354;4.970;2023-07-13T01:02:38;101318.50;;;19.10;100.00
54172;BME280;40076;52.354;4.970;2023-07-13T01:05:11;101316.13;;;19.08;100.00
54172;BME280;40076;52.354;4.970;2023-07-13T01:07:38;101317.28;;;19.07;100.00
54172;BME280;40076;52.354;4.970;2023-07-13T01:10:04;101318.03;;;19.04;100.00
54172;BME280;40076;52.354;4.970;2023-07-13T01:12:29;101321.13;;;19.03;100.00
54172;BME280;40076;52.354;4.970;2023-07-13T01:15:00;101331.28;;;19.02;100.00
54172;BME280;40076;52.354;4.970;2023-07-13T01:17:27;101331.28;;;19.02;100.00
54172;BME280;40076;52.354;4.970;2023-07-13T01:19:54;101325.03;;;19.02;100.00
54172;BME280;40076;52.354;4.970;2023-07-13T01:22:20;101330.84;;;19.00;100.00
54172;BME280;40076;52.354;4.970;2023-07-13T01:25:24;101325.38;;;19.00;100.00
54172;BME280;40076;52.354;4.970;2023-07-13T01:27:50;101333.19;;;18.98;100.00
54172;BME280;40076;52.354;4.970;2023-07-13T01:30:15;101332.75;;;18.96;100.00
54172;BME280;40076;52.354;4.970;2023-07-13T01:32:41;101323.31;;;18.94;100.00
54172;BME280;40076;52.354;4.970;2023-07-13T01:35:07;101334.22;;;18.90;100.00
54172;BME280;40076;52.354;4.970;2023-07-13T01:37:33;101329.88;;;18.89;100.00
54172;BME280;40076;52.354;4.970;2023-07-13T01:40:05;101337.66;;;18.87;100.00
54172;BME280;40076;52.354;4.970;2023-07-13T01:42:31;101340.75;;;18.85;100.00
54172;BME280;40076;52.354;4.970;2023-07-13T01:44:57;101343.88;;;18.84;100.00
54172;BME280;40076;52.354;4.970;2023-07-13T01:47:23;101340.69;;;18.82;100.00
54172;BME280;40076;52.354;4.970;2023-07-13T01:49:48;101351.22;;;18.80;100.00
54172;BME280;40076;52.354;4.970;2023-07-13T01:52:16;101340.22;;;18.76;100.00
54172;BME280;40076;52.354;4.970;2023-07-13T01:54:41;101344.88;;;18.76;100.00
54172;BME280;40076;52.354;4.970;2023-07-13T01:57:06;101349.94;;;18.74;100.00
54172;BME280;40076;52.354;4.970;2023-07-13T01:59:32;101345.97;;;18.71;100.00
54172;BME280;40076;52.354;4.970;2023-07-13T02:01:58;101353.38;;;18.71;100.00
54172;BME280;40076;52.354;4.970;2023-07-13T02:04:24;101347.91;;;18.71;100.00
54172;BME280;40076;52.354;4.970;2023-07-13T02:06:49;101351.78;;;18.70;100.00
54172;BME280;40076;52.354;4.970;2023-07-13T02:09:15;101338.09;;;18.70;100.00
54172;BME280;40076;52.354;4.970;2023-07-13T02:11:40;101352.97;;;18.69;100.00
54172;BME280;40076;52.354;4.970;2023-07-13T02:14:06;101360.38;;;18.68;100.00
54172;BME280;40076;52.354;4.970;2023-07-13T02:16:31;101364.63;;;18.66;100.00
54172;BME280;40076;52.354;4.970;2023-07-13T02:18:57;101363.03;;;18.65;100.00
54172;BME280;40076;52.354;4.970;2023-07-13T02:21:23;101364.19;;;18.64;100.00
54172;BME280;40076;52.354;4.970;2023-07-13T02:23:49;101360.66;;;18.63;100.00
54172;BME280;40076;52.354;4.970;2023-07-13T02:26:15;101365.34;;;18.63;100.00
54172;BME280;40076;52.354;4.970;2023-07-13T02:28:41;101368.44;;;18.61;100.00
54172;BME280;40076;52.354;4.970;2023-07-13T02:31:11;101365.63;;;18.58;100.00
54172;BME280;40076;52.354;4.970;2023-07-13T02:33:37;101362.09;;;18.57;100.00
54172;BME280;40076;52.354;4.970;2023-07-13T02:36:03;101367.56;;;18.57;100.00
54172;BME280;40076;52.354;4.970;2023-07-13T02:38:31;101357.78;;;18.56;100.00
54172;BME280;40076;52.354;4.970;2023-07-13T02:40:59;101358.09;;;18.55;100.00
54172;BME280;40076;52.354;4.970;2023-07-13T02:43:24;101356.09;;;18.51;100.00
54172;BME280;40076;52.354;4.970;2023-07-13T02:45:50;101363.06;;;18.49;100.00
54172;BME280;40076;52.354;4.970;2023-07-13T02:48:16;101364.66;;;18.50;100.00
54172;BME280;40076;52.354;4.970;2023-07-13T02:50:44;101365.81;;;18.49;100.00
54172;BME280;40076;52.354;4.970;2023-07-13T02:53:09;101364.22;;;18.48;100.00
54172;BME280;40076;52.354;4.970;2023-07-13T02:55:35;101365.00;;;18.48;100.00
54172;BME280;40076;52.354;4.970;2023-07-13T02:58:00;101373.97;;;18.45;100.00
54172;BME280;40076;52.354;4.970;2023-07-13T03:00:26;101371.22;;;18.45;100.00
54172;BME280;40076;52.354;4.970;2023-07-13T03:03:16;101362.91;;;18.42;100.00
54172;BME280;40076;52.354;4.970;2023-07-13T03:05:43;101373.44;;;18.40;100.00
54172;BME280;40076;52.354;4.970;2023-07-13T03:08:14;101365.59;;;18.38;100.00
54172;BME280;40076;52.354;4.970;2023-07-13T03:10:40;101373.44;;;18.40;100.00
54172;BME280;40076;52.354;4.970;2023-07-13T03:13:06;101372.63;;;18.39;100.00
54172;BME280;40076;52.354;4.970;2023-07-13T03:15:31;101373.00;;;18.38;100.00
54172;BME280;40076;52.354;4.970;2023-07-13T03:17:57;101367.91;;;18.36;100.00
54172;BME280;40076;52.354;4.970;2023-07-13T03:20:22;101370.97;;;18.35;100.00
54172;BME280;40076;52.354;4.970;2023-07-13T03:22:48;101367.44;;;18.34;100.00
54172;BME280;40076;52.354;4.970;2023-07-13T03:25:13;101381.47;;;18.33;100.00
54172;BME280;40076;52.354;4.970;2023-07-13T03:27:39;101374.81;;;18.30;100.00
54172;BME280;40076;52.354;4.970;2023-07-13T03:30:05;101373.22;;;18.29;100.00
54172;BME280;40076;52.354;4.970;2023-07-13T03:32:32;101383.72;;;18.27;100.00
54172;BME280;40076;52.354;4.970;2023-07-13T03:34:57;101371.97;;;18.27;100.00
54172;BME280;40076;52.354;4.970;2023-07-13T03:37:23;101370.38;;;18.26;100.00
54172;BME280;40076;52.354;4.970;2023-07-13T03:39:49;101370.75;;;18.24;100.00
54172;BME280;40076;52.354;4.970;2023-07-13T03:42:14;101380.88;;;18.24;100.00
54172;BME280;40076;52.354;4.970;2023-07-13T03:44:40;101375.00;;;18.22;100.00
54172;BME280;40076;52.354;4.970;2023-07-13T03:47:06;101382.84;;;18.23;100.00
54172;BME280;40076;52.354;4.970;2023-07-13T03:49:34;101381.63;;;18.21;100.00
54172;BME280;40076;52.354;4.970;2023-07-13T03:52:00;101379.22;;;18.19;100.00
54172;BME280;40076;52.354;4.970;2023-07-13T03:54:26;101384.69;;;18.19;100.00
54172;BME280;40076;52.354;4.970;2023-07-13T03:56:51;101381.97;;;18.19;100.00
54172;BME280;40076;52.354;4.970;2023-07-13T03:59:17;101382.31;;;18.18;100.00
54172;BME280;40076;52.354;4.970;2023-07-13T04:01:44;101376.84;;;18.18;100.00
54172;BME280;40076;52.354;4.970;2023-07-13T04:04:10;101379.59;;;18.18;100.00
54172;BME280;40076;52.354;4.970;2023-07-13T04:06:35;101383.13;;;18.18;100.00
54172;BME280;40076;52.354;4.970;2023-07-13T04:09:02;101383.47;;;18.17;100.00
54172;BME280;40076;52.354;4.970;2023-07-13T04:11:31;101387.38;;;18.16;100.00
54172;BME280;40076;52.354;4.970;2023-07-13T04:13:57;101384.63;;;18.16;100.00
54172;BME280;40076;52.354;4.970;2023-07-13T04:16:22;101390.81;;;18.12;100.00
54172;BME280;40076;52.354;4.970;2023-07-13T04:18:48;101396.28;;;18.12;100.00
54172;BME280;40076;52.354;4.970;2023-07-13T04:21:15;101399.38;;;18.11;100.00
54172;BME280;40076;52.354;4.970;2023-07-13T04:23:40;101395.03;;;18.10;100.00
54172;BME280;40076;52.354;4.970;2023-07-13T04:26:06;101397.78;;;18.10;100.00
54172;BME280;40076;52.354;4.970;2023-07-13T04:28:33;101394.25;;;18.09;100.00
54172;BME280;40076;52.354;4.970;2023-07-13T04:30:59;101398.91;;;18.09;100.00
54172;BME280;40076;52.354;4.970;2023-07-13T04:33:26;101413.72;;;18.08;100.00
54172;BME280;40076;52.354;4.970;2023-07-13T04:35:53;101401.66;;;18.09;100.00
54172;BME280;40076;52.354;4.970;2023-07-13T04:38:24;101413.38;;;18.09;100.00
54172;BME280;40076;52.354;4.970;2023-07-13T04:40:58;101411.44;;;18.10;100.00
54172;BME280;40076;52.354;4.970;2023-07-13T04:43:25;101420.44;;;18.10;100.00
54172;BME280;40076;52.354;4.970;2023-07-13T04:45:51;101419.22;;;18.08;100.00
54172;BME280;40076;52.354;4.970;2023-07-13T04:48:17;101419.59;;;18.06;100.00
54172;BME280;40076;52.354;4.970;2023-07-13T04:50:43;101422.66;;;18.05;100.00
54172;BME280;40076;52.354;4.970;2023-07-13T04:53:09;101426.09;;;18.02;100.00
54172;BME280;40076;52.354;4.970;2023-07-13T04:55:36;101423.31;;;17.98;100.00
54172;BME280;40076;52.354;4.970;2023-07-13T04:58:01;101427.19;;;17.97;100.00
54172;BME280;40076;52.354;4.970;2023-07-13T05:00:28;101434.59;;;17.97;100.00
54172;BME280;40076;52.354;4.970;2023-07-13T05:02:56;101436.19;;;17.98;100.00
54172;BME280;40076;52.354;4.970;2023-07-13T05:05:23;101438.91;;;17.98;100.00
54172;BME280;40076;52.354;4.970;2023-07-13T05:11:01;101439.25;;;17.96;100.00
54172;BME280;40076;52.354;4.970;2023-07-13T05:13:27;101442.34;;;17.95;100.00
54172;BME280;40076;52.354;4.970;2023-07-13T05:15:58;101449.31;;;17.92;100.00
54172;BME280;40076;52.354;4.970;2023-07-13T05:18:24;101445.78;;;17.92;100.00
54172;BME280;40076;52.354;4.970;2023-07-13T05:21:03;101446.16;;;17.90;100.00
54172;BME280;40076;52.354;4.970;2023-07-13T05:23:29;101453.19;;;17.91;100.00
54172;BME280;40076;52.354;4.970;2023-07-13T05:25:57;101450.03;;;17.89;100.00
54172;BME280;40076;52.354;4.970;2023-07-13T05:28:41;101456.28;;;17.90;100.00
54172;BME280;40076;52.354;4.970;2023-07-13T05:31:08;101461.75;;;17.90;100.00
54172;BME280;40076;52.354;4.970;2023-07-13T05:33:36;101461.75;;;17.90;100.00
54172;BME280;40076;52.354;4.970;2023-07-13T05:36:04;101462.56;;;17.90;100.00
54172;BME280;40076;52.354;4.970;2023-07-13T05:38:30;101458.28;;;17.93;100.00
54172;BME280;40076;52.354;4.970;2023-07-13T05:41:09;101469.34;;;17.96;100.00
54172;BME280;40076;52.354;4.970;2023-07-13T05:43:47;101464.72;;;18.00;100.00
54172;BME280;40076;52.354;4.970;2023-07-13T05:46:13;101472.69;;;18.05;100.00
54172;BME280;40076;52.354;4.970;2023-07-13T05:48:41;101465.69;;;18.08;100.00
54172;BME280;40076;52.354;4.970;2023-07-13T05:51:07;101467.38;;;18.12;100.00
54172;BME280;40076;52.354;4.970;2023-07-13T05:53:34;101468.25;;;18.17;100.00
54172;BME280;40076;52.354;4.970;2023-07-13T05:56:00;101470.28;;;18.20;100.00
54172;BME280;40076;52.354;4.970;2023-07-13T05:58:26;101473.47;;;18.22;100.00
54172;BME280;40076;52.354;4.970;2023-07-13T06:01:01;101470.81;;;18.25;100.00
54172;BME280;40076;52.354;4.970;2023-07-13T06:03:27;101475.22;;;18.30;100.00
54172;BME280;40076;52.354;4.970;2023-07-13T06:05:53;101475.75;;;18.35;100.00
54172;BME280;40076;52.354;4.970;2023-07-13T06:08:18;101477.84;;;18.42;100.00
54172;BME280;40076;52.354;4.970;2023-07-13T06:10:44;101482.69;;;18.48;100.00
54172;BME280;40076;52.354;4.970;2023-07-13T06:13:16;101485.16;;;18.54;100.00
54172;BME280;40076;52.354;4.970;2023-07-13T06:15:41;101478.28;;;18.60;100.00
54172;BME280;40076;52.354;4.970;2023-07-13T06:18:12;101483.03;;;18.63;100.00
54172;BME280;40076;52.354;4.970;2023-07-13T06:23:49;101475.13;;;18.77;100.00
54172;BME280;40076;52.354;4.970;2023-07-13T06:26:16;101478.75;;;18.81;100.00
54172;BME280;40076;52.354;4.970;2023-07-13T06:28:45;101487.81;;;18.85;100.00
54172;BME280;40076;52.354;4.970;2023-07-13T06:31:14;101488.34;;;18.91;100.00
54172;BME280;40076;52.354;4.970;2023-07-13T06:33:48;101492.72;;;18.95;100.00
54172;BME280;40076;52.354;4.970;2023-07-13T06:36:14;101487.34;;;18.99;100.00
54172;BME280;40076;52.354;4.970;2023-07-13T06:38:43;101489.69;;;19.00;100.00
54172;BME280;40076;52.354;4.970;2023-07-13T06:41:14;101488.56;;;19.01;100.00
54172;BME280;40076;52.354;4.970;2023-07-13T06:43:40;101494.47;;;19.03;100.00
54172;BME280;40076;52.354;4.970;2023-07-13T06:46:05;101493.31;;;19.04;100.00
54172;BME280;40076;52.354;4.970;2023-07-13T06:48:33;101492.97;;;19.06;100.00
54172;BME280;40076;52.354;4.970;2023-07-13T06:51:01;101496.84;;;19.05;100.00
54172;BME280;40076;52.354;4.970;2023-07-13T06:53:27;101499.94;;;19.03;100.00
54172;BME280;40076;52.354;4.970;2023-07-13T06:55:53;101505.88;;;19.05;100.00
54172;BME280;40076;52.354;4.970;2023-07-13T06:58:18;101511.34;;;19.05;100.00
54172;BME280;40076;52.354;4.970;2023-07-13T07:00:44;101509.81;;;19.08;100.00
54172;BME280;40076;52.354;4.970;2023-07-13T07:03:10;101514.22;;;19.12;100.00
54172;BME280;40076;52.354;4.970;2023-07-13T07:05:38;101513.59;;;19.19;100.00
54172;BME280;40076;52.354;4.970;2023-07-13T07:08:06;101512.88;;;19.22;100.00
54172;BME280;40076;52.354;4.970;2023-07-13T07:10:37;101521.16;;;19.25;100.00
54172;BME280;40076;52.354;4.970;2023-07-13T07:13:05;101510.63;;;19.27;100.00
54172;BME280;40076;52.354;4.970;2023-07-13T07:15:31;101525.19;;;19.32;100.00
54172;BME280;40076;52.354;4.970;2023-07-13T07:17:56;101523.31;;;19.36;100.00
54172;BME280;40076;52.354;4.970;2023-07-13T07:20:22;101523.44;;;19.43;100.00
54172;BME280;40076;52.354;4.970;2023-07-13T07:22:48;101523.97;;;19.48;100.00
54172;BME280;40076;52.354;4.970;2023-07-13T07:25:16;101534.59;;;19.50;100.00
54172;BME280;40076;52.354;4.970;2023-07-13T07:27:41;101534.22;;;19.51;100.00
54172;BME280;40076;52.354;4.970;2023-07-13T07:30:14;101528.75;;;19.51;100.00
54172;BME280;40076;52.354;4.970;2023-07-13T07:32:42;101533.88;;;19.53;100.00
54172;BME280;40076;52.354;4.970;2023-07-13T07:35:07;101532.78;;;19.57;100.00
54172;BME280;40076;52.354;4.970;2023-07-13T07:37:35;101540.34;;;19.64;100.00
54172;BME280;40076;52.354;4.970;2023-07-13T07:40:01;101540.41;;;19.68;100.00
54172;BME280;40076;52.354;4.970;2023-07-13T07:42:27;101532.53;;;19.66;100.00
54172;BME280;40076;52.354;4.970;2023-07-13T07:44:52;101536.13;;;19.70;100.00
54172;BME280;40076;52.354;4.970;2023-07-13T07:47:21;101536.66;;;19.76;100.00
54172;BME280;40076;52.354;4.970;2023-07-13T07:49:48;101532.44;;;19.82;100.00
54172;BME280;40076;52.354;4.970;2023-07-13T07:52:13;101541.88;;;19.84;100.00
54172;BME280;40076;52.354;4.970;2023-07-13T07:54:39;101539.56;;;19.86;100.00
54172;BME280;40076;52.354;4.970;2023-07-13T07:57:04;101537.25;;;19.88;100.00
54172;BME280;40076;52.354;4.970;2023-07-13T07:59:30;101543.97;;;19.91;99.45
54172;BME280;40076;52.354;4.970;2023-07-13T08:01:55;101545.53;;;19.92;99.00
54172;BME280;40076;52.354;4.970;2023-07-13T08:04:21;101538.09;;;19.92;98.26
54172;BME280;40076;52.354;4.970;2023-07-13T08:06:46;101536.94;;;19.93;97.59
54172;BME280;40076;52.354;4.970;2023-07-13T08:09:12;101540.56;;;19.97;97.59
54172;BME280;40076;52.354;4.970;2023-07-13T08:11:40;101529.22;;;19.99;96.97
54172;BME280;40076;52.354;4.970;2023-07-13T08:14:05;101533.53;;;20.00;96.22
54172;BME280;40076;52.354;4.970;2023-07-13T08:16:30;101530.88;;;20.03;95.69
54172;BME280;40076;52.354;4.970;2023-07-13T08:18:58;101533.66;;;20.07;95.87
54172;BME280;40076;52.354;4.970;2023-07-13T08:21:23;101532.22;;;20.13;95.74
54172;BME280;40076;52.354;4.970;2023-07-13T08:23:49;101541.72;;;20.19;95.75
54172;BME280;40076;52.354;4.970;2023-07-13T08:26:14;101537.50;;;20.25;94.84
54172;BME280;40076;52.354;4.970;2023-07-13T08:28:43;101535.22;;;20.31;93.96
54172;BME280;40076;52.354;4.970;2023-07-13T08:31:09;101537.63;;;20.32;93.19
54172;BME280;40076;52.354;4.970;2023-07-13T08:33:36;101541.66;;;20.38;93.24
54172;BME280;40076;52.354;4.970;2023-07-13T08:36:09;101544.91;;;20.44;91.98
54172;BME280;40076;52.354;4.970;2023-07-13T08:38:37;101548.06;;;20.46;91.42
54172;BME280;40076;52.354;4.970;2023-07-13T08:41:12;101551.59;;;20.47;90.81
54172;BME280;40076;52.354;4.970;2023-07-13T08:43:37;101558.66;;;20.48;90.16
54172;BME280;40076;52.354;4.970;2023-07-13T08:51:48;101555.44;;;20.42;85.66
54172;BME280;40076;52.354;4.970;2023-07-13T08:56:53;101560.72;;;20.54;85.35
54172;BME280;40076;52.354;4.970;2023-07-13T08:59:24;101571.72;;;20.54;83.10
54172;BME280;40076;52.354;4.970;2023-07-13T09:02:05;101566.97;;;20.51;82.74
54172;BME280;40076;52.354;4.970;2023-07-13T09:04:39;101566.97;;;20.51;82.57
54172;BME280;40076;52.354;4.970;2023-07-13T09:12:43;101564.84;;;20.67;83.56
54172;BME280;40076;52.354;4.970;2023-07-13T09:15:29;101564.56;;;20.72;82.97
54172;BME280;40076;52.354;4.970;2023-07-13T09:18:03;101573.69;;;20.80;82.02
54172;BME280;40076;52.354;4.970;2023-07-13T09:20:35;101565.91;;;20.86;79.95
54172;BME280;40076;52.354;4.970;2023-07-13T09:23:06;101570.25;;;20.87;78.14
54172;BME280;40076;52.354;4.970;2023-07-13T09:25:34;101582.84;;;20.91;78.78
54172;BME280;40076;52.354;4.970;2023-07-13T09:28:19;101580.19;;;20.95;77.38
54172;BME280;40076;52.354;4.970;2023-07-13T09:30:54;101577.88;;;21.00;78.29
54172;BME280;40076;52.354;4.970;2023-07-13T09:33:22;101584.50;;;20.96;77.79
54172;BME280;40076;52.354;4.970;2023-07-13T09:35:48;101585.31;;;20.96;77.75
54172;BME280;40076;52.354;4.970;2023-07-13T09:38:17;101594.38;;;21.00;77.57
54172;BME280;40076;52.354;4.970;2023-07-13T09:43:15;101585.88;;;21.09;77.14
54172;BME280;40076;52.354;4.970;2023-07-13T09:45:45;101591.44;;;21.16;78.09
54172;BME280;40076;52.354;4.970;2023-07-13T09:48:12;101594.28;;;21.20;76.50
54172;BME280;40076;52.354;4.970;2023-07-13T09:50:42;101598.91;;;21.15;75.33
54172;BME280;40076;52.354;4.970;2023-07-13T09:53:18;101608.31;;;21.14;75.43
54172;BME280;40076;52.354;4.970;2023-07-13T09:55:46;101602.81;;;21.14;75.06
54172;BME280;40076;52.354;4.970;2023-07-13T09:58:18;101599.78;;;21.20;74.22
54172;BME280;40076;52.354;4.970;2023-07-13T10:03:22;101594.84;;;21.32;74.04
54172;BME280;40076;52.354;4.970;2023-07-13T10:05:49;101603.50;;;21.34;74.08
54172;BME280;40076;52.354;4.970;2023-07-13T10:08:35;101617.66;;;21.36;73.64
54172;BME280;40076;52.354;4.970;2023-07-13T10:11:22;101616.47;;;21.34;73.28
54172;BME280;40076;52.354;4.970;2023-07-13T10:13:55;101612.56;;;21.35;73.96
54172;BME280;40076;52.354;4.970;2023-07-13T10:16:26;101614.16;;;21.36;73.63
54172;BME280;40076;52.354;4.970;2023-07-13T10:18:58;101621.97;;;21.34;73.10
54172;BME280;40076;52.354;4.970;2023-07-13T10:21:29;101635.34;;;21.35;72.44
54172;BME280;40076;52.354;4.970;2023-07-13T10:24:04;101614.91;;;21.36;71.51
54172;BME280;40076;52.354;4.970;2023-07-13T10:26:33;101631.81;;;21.35;70.78
54172;BME280;40076;52.354;4.970;2023-07-13T10:29:06;101629.00;;;21.31;70.28
54172;BME280;40076;52.354;4.970;2023-07-13T10:31:38;101629.41;;;21.33;71.22
54172;BME280;40076;52.354;4.970;2023-07-13T10:34:04;101630.66;;;21.39;70.90
54172;BME280;40076;52.354;4.970;2023-07-13T10:36:46;101631.19;;;21.48;72.18
54172;BME280;40076;52.354;4.970;2023-07-13T10:39:23;101641.13;;;21.60;72.30
54172;BME280;40076;52.354;4.970;2023-07-13T10:41:53;101643.19;;;21.67;71.17
54172;BME280;40076;52.354;4.970;2023-07-13T10:44:26;101639.69;;;21.70;70.81
54172;BME280;40076;52.354;4.970;2023-07-13T10:46:57;101639.25;;;21.64;70.34
54172;BME280;40076;52.354;4.970;2023-07-13T10:49:24;101647.13;;;21.66;70.38
54172;BME280;40076;52.354;4.970;2023-07-13T10:51:52;101654.16;;;21.63;69.75
54172;BME280;40076;52.354;4.970;2023-07-13T10:54:26;101651.03;;;21.65;69.30
54172;BME280;40076;52.354;4.970;2023-07-13T10:57:10;101653.81;;;21.68;69.55
54172;BME280;40076;52.354;4.970;2023-07-13T10:59:41;101671.16;;;21.72;69.86
54172;BME280;40076;52.354;4.970;2023-07-13T11:02:30;101666.53;;;21.80;68.39
54172;BME280;40076;52.354;4.970;2023-07-13T11:04:56;101665.78;;;21.83;68.36
54172;BME280;40076;52.354;4.970;2023-07-13T11:07:25;101678.00;;;21.85;67.91
54172;BME280;40076;52.354;4.970;2023-07-13T11:09:54;101672.88;;;21.84;67.92
54172;BME280;40076;52.354;4.970;2023-07-13T11:12:27;101676.78;;;21.83;67.45
54172;BME280;40076;52.354;4.970;2023-07-13T11:20:20;101665.06;;;21.89;67.39
54172;BME280;40076;52.354;4.970;2023-07-13T11:22:53;101669.84;;;21.92;66.47
54172;BME280;40076;52.354;4.970;2023-07-13T11:25:36;101658.50;;;21.98;66.85
54172;BME280;40076;52.354;4.970;2023-07-13T11:30:40;101677.53;;;22.10;66.30
54172;BME280;40076;52.354;4.970;2023-07-13T11:33:22;101662.97;;;22.09;65.39
54172;BME280;40076;52.354;4.970;2023-07-13T11:35:59;101662.19;;;22.09;64.35
54172;BME280;40076;52.354;4.970;2023-07-13T11:40:54;101672.84;;;22.14;65.11
54172;BME280;40076;52.354;4.970;2023-07-13T11:43:20;101678.78;;;22.16;65.22
54172;BME280;40076;52.354;4.970;2023-07-13T11:45:49;101678.41;;;22.17;64.79
54172;BME280;40076;52.354;4.970;2023-07-13T11:48:20;101681.56;;;22.19;64.55
54172;BME280;40076;52.354;4.970;2023-07-13T11:50:51;101682.03;;;22.25;64.42
54172;BME280;40076;52.354;4.970;2023-07-13T11:53:18;101689.13;;;22.26;64.26
54172;BME280;40076;52.354;4.970;2023-07-13T11:55:44;101680.09;;;22.29;64.42
54172;BME280;40076;52.354;4.970;2023-07-13T11:58:14;101684.78;;;22.28;64.44
54172;BME280;40076;52.354;4.970;2023-07-13T12:00:42;101686.00;;;22.27;63.67
54172;BME280;40076;52.354;4.970;2023-07-13T12:03:07;101678.50;;;22.28;64.28
54172;BME280;40076;52.354;4.970;2023-07-13T12:05:34;101686.81;;;22.31;64.20
54172;BME280;40076;52.354;4.970;2023-07-13T12:08:08;101678.91;;;22.30;63.41
54172;BME280;40076;52.354;4.970;2023-07-13T12:10:34;101696.28;;;22.34;64.08
54172;BME280;40076;52.354;4.970;2023-07-13T12:13:04;101691.56;;;22.35;63.68
54172;BME280;40076;52.354;4.970;2023-07-13T12:15:46;101677.03;;;22.38;63.82
54172;BME280;40076;52.354;4.970;2023-07-13T12:18:29;101688.09;;;22.41;64.67
54172;BME280;40076;52.354;4.970;2023-07-13T12:20:57;101683.03;;;22.47;64.38
54172;BME280;40076;52.354;4.970;2023-07-13T12:23:28;101686.19;;;22.49;63.82
54172;BME280;40076;52.354;4.970;2023-07-13T12:25:54;101683.47;;;22.52;64.09
54172;BME280;40076;52.354;4.970;2023-07-13T12:28:28;101677.63;;;22.57;63.29
54172;BME280;40076;52.354;4.970;2023-07-13T12:31:00;101684.31;;;22.60;64.11
54172;BME280;40076;52.354;4.970;2023-07-13T12:33:28;101682.03;;;22.65;64.17
54172;BME280;40076;52.354;4.970;2023-07-13T12:35:54;101691.88;;;22.70;64.14
54172;BME280;40076;52.354;4.970;2023-07-13T12:38:21;101689.56;;;22.72;63.84
54172;BME280;40076;52.354;4.970;2023-07-13T12:40:50;101697.06;;;22.75;64.35
54172;BME280;40076;52.354;4.970;2023-07-13T12:43:20;101690.44;;;22.80;64.51
54172;BME280;40076;52.354;4.970;2023-07-13T12:46:01;101686.94;;;22.86;64.39
54172;BME280;40076;52.354;4.970;2023-07-13T12:48:28;101692.88;;;22.92;64.68
54172;BME280;40076;52.354;4.970;2023-07-13T12:53:28;101682.59;;;22.85;63.70
54172;BME280;40076;52.354;4.970;2023-07-13T12:56:01;101688.53;;;22.91;63.70
54172;BME280;40076;52.354;4.970;2023-07-13T12:58:28;101691.72;;;22.96;63.14
54172;BME280;40076;52.354;4.970;2023-07-13T13:00:56;101689.00;;;23.00;63.51
54172;BME280;40076;52.354;4.970;2023-07-13T13:03:35;101693.34;;;23.04;63.16
54172;BME280;40076;52.354;4.970;2023-07-13T13:06:23;101703.63;;;23.07;63.20
54172;BME280;40076;52.354;4.970;2023-07-13T13:08:54;101700.50;;;23.09;62.95
54172;BME280;40076;52.354;4.970;2023-07-13T13:11:22;101709.16;;;23.07;62.46
54172;BME280;40076;52.354;4.970;2023-07-13T13:13:48;101692.97;;;23.06;62.34
54172;BME280;40076;52.354;4.970;2023-07-13T13:18:55;101704.44;;;23.08;62.68
54172;BME280;40076;52.354;4.970;2023-07-13T13:21:23;101701.66;;;23.08;62.36
54172;BME280;40076;52.354;4.970;2023-07-13T13:23:49;101711.53;;;23.09;62.05
54172;BME280;40076;52.354;4.970;2023-07-13T13:26:23;101712.66;;;23.04;62.57
54172;BME280;40076;52.354;4.970;2023-07-13T13:28:49;101710.63;;;22.98;62.91
54172;BME280;40076;52.354;4.970;2023-07-13T13:31:15;101714.56;;;22.97;63.10
54172;BME280;40076;52.354;4.970;2023-07-13T13:33:42;101704.28;;;22.90;63.53
54172;BME280;40076;52.354;4.970;2023-07-13T13:36:17;101705.81;;;22.84;63.68